createdAt,value
2023-03-31T00:00:02.941Z,88.8
2023-03-31T00:15:02.524Z,88.0
2023-03-31T00:30:02.780Z,88.1
2023-03-31T00:45:03.273Z,88.3
2023-03-31T01:00:02.706Z,88.5
2023-03-31T01:15:03.131Z,88.9
2023-03-31T01:30:02.546Z,89.4
2023-03-31T01:45:02.996Z,90.2
2023-03-31T02:00:02.559Z,90.7
2023-03-31T02:15:02.881Z,91.1
2023-03-31T02:30:02.482Z,91.7
2023-03-31T02:45:02.736Z,92.1
2023-03-31T03:00:03.202Z,92.0
2023-03-31T03:15:02.650Z,92.5
2023-03-31T03:30:03.067Z,93.5
2023-03-31T03:45:02.583Z,94.0
2023-03-31T04:00:02.923Z,94.8
2023-03-31T04:15:02.559Z,95.5
2023-03-31T04:30:02.825Z,96.1
2023-03-31T04:45:03.258Z,96.7
2023-03-31T05:00:02.676Z,97.1
2023-03-31T05:15:03.146Z,97.7
2023-03-31T05:30:02.592Z,98.0
2023-03-31T05:45:03.028Z,98.3
2023-03-31T06:00:02.583Z,98.5
2023-03-31T06:15:02.878Z,98.6
2023-03-31T06:30:02.540Z,98.6
2023-03-31T06:45:02.760Z,98.7
2023-03-31T07:00:03.231Z,99.0
2023-03-31T07:15:02.707Z,98.9
2023-03-31T07:30:03.088Z,98.9
2023-03-31T07:45:02.609Z,98.8
2023-03-31T08:00:02.961Z,98.7
2023-03-31T08:15:02.606Z,98.8
2023-03-31T08:30:02.838Z,98.8
2023-03-31T08:45:02.315Z,98.9
2023-03-31T09:00:02.740Z,99.1
2023-03-31T09:15:03.177Z,99.1
2023-03-31T09:30:02.656Z,99.0
2023-03-31T09:45:03.079Z,98.9
2023-03-31T10:00:02.624Z,98.7
2023-03-31T10:15:02.906Z,98.9
2023-03-31T10:30:02.383Z,99.0
2023-03-31T10:45:02.780Z,99.2
2023-03-31T11:00:03.242Z,99.6
2023-03-31T11:15:02.659Z,99.4
2023-03-31T11:30:03.109Z,99.5
2023-03-31T11:45:02.645Z,99.6
2023-03-31T12:00:02.950Z,99.7
2023-03-31T12:15:02.603Z,99.8
2023-03-31T12:30:02.828Z,99.6
2023-03-31T12:45:02.295Z,97.5
2023-03-31T13:00:02.715Z,98.2
2023-03-31T13:15:03.133Z,98.1
2023-03-31T13:30:02.667Z,98.4
2023-03-31T13:45:02.993Z,98.6
2023-03-31T14:00:02.658Z,99.3
2023-03-31T14:15:02.878Z,98.9
2023-03-31T14:30:02.285Z,98.1
2023-03-31T14:45:02.769Z,98.2
2023-03-31T15:00:03.198Z,98.2
2023-03-31T15:15:02.691Z,98.1
2023-03-31T15:30:03.080Z,97.7
2023-03-31T15:45:02.688Z,97.2
2023-03-31T16:00:02.933Z,97.4
2023-03-31T16:15:02.388Z,97.3
2023-03-31T16:30:02.815Z,97.1
2023-03-31T17:00:02.775Z,95.8
2023-03-31T17:15:02.141Z,95.2
2023-03-31T17:30:02.909Z,95.3
2023-03-31T18:00:02.443Z,94.1
2023-03-31T18:15:02.910Z,95.0
2023-03-31T18:30:02.324Z,95.9
2023-03-31T18:45:02.770Z,96.6
2023-03-31T19:00:03.221Z,96.8
2023-03-31T19:15:02.738Z,97.2
2023-03-31T19:30:03.101Z,97.7
2023-03-31T19:45:02.746Z,97.8
2023-03-31T20:00:05.233Z,98.0
2023-03-31T20:30:02.818Z,98.4
2023-03-31T20:45:03.299Z,98.5
2023-03-31T21:00:02.749Z,98.6
2023-03-31T21:15:03.167Z,98.7
2023-03-31T21:30:02.785Z,98.8
2023-03-31T21:45:03.023Z,99.0
2023-03-31T22:00:02.477Z,99.1
2023-03-31T22:15:02.858Z,99.3
2023-03-31T22:30:02.333Z,99.4
2023-03-31T22:45:02.752Z,99.6
2023-03-31T23:00:03.222Z,99.8
2023-03-31T23:15:02.769Z,99.9
2023-03-31T23:30:02.060Z,100.0
2023-03-31T23:45:02.510Z,100.0
